sensor_id;sensor_type;location;lat;lon;timestamp;P1;durP1;ratioP1;P2;durP2;ratioP2
75038;SDS011;63609;49.992;14.512;2022-10-14T00:00:31;27.25;;;12.75;;
75038;SDS011;63609;49.992;14.512;2022-10-14T00:02:59;23.23;;;11.70;;
75038;SDS011;63609;49.992;14.512;2022-10-14T00:05:25;30.10;;;13.70;;
75038;SDS011;63609;49.992;14.512;2022-10-14T00:07:52;22.15;;;10.73;;
75038;SDS011;63609;49.992;14.512;2022-10-14T00:12:45;28.42;;;13.73;;
75038;SDS011;63609;49.992;14.512;2022-10-14T00:15:12;25.75;;;12.77;;
75038;SDS011;63609;49.992;14.512;2022-10-14T00:17:39;27.52;;;11.70;;
75038;SDS011;63609;49.992;14.512;2022-10-14T00:20:06;26.77;;;13.00;;
75038;SDS011;63609;49.992;14.512;2022-10-14T00:22:34;29.45;;;16.30;;
75038;SDS011;63609;49.992;14.512;2022-10-14T00:25:01;33.50;;;13.90;;
75038;SDS011;63609;49.992;14.512;2022-10-14T00:27:28;24.77;;;11.90;;
75038;SDS011;63609;49.992;14.512;2022-10-14T00:32:21;22.45;;;12.57;;
75038;SDS011;63609;49.992;14.512;2022-10-14T00:34:50;26.73;;;13.52;;
75038;SDS011;63609;49.992;14.512;2022-10-14T00:39:43;27.38;;;12.27;;
75038;SDS011;63609;49.992;14.512;2022-10-14T00:47:08;26.15;;;12.57;;
75038;SDS011;63609;49.992;14.512;2022-10-14T00:49:38;24.52;;;12.88;;
75038;SDS011;63609;49.992;14.512;2022-10-14T00:52:13;27.90;;;13.48;;
75038;SDS011;63609;49.992;14.512;2022-10-14T00:54:52;27.35;;;12.85;;
75038;SDS011;63609;49.992;14.512;2022-10-14T00:57:22;26.17;;;12.60;;
75038;SDS011;63609;49.992;14.512;2022-10-14T00:59:51;28.25;;;13.23;;
75038;SDS011;63609;49.992;14.512;2022-10-14T01:02:23;28.35;;;13.55;;
75038;SDS011;63609;49.992;14.512;2022-10-14T01:04:49;24.85;;;11.93;;
75038;SDS011;63609;49.992;14.512;2022-10-14T01:13:24;24.27;;;12.88;;
75038;SDS011;63609;49.992;14.512;2022-10-14T01:21:59;27.25;;;11.65;;
75038;SDS011;63609;49.992;14.512;2022-10-14T01:24:49;23.98;;;11.50;;
75038;SDS011;63609;49.992;14.512;2022-10-14T01:27:47;24.95;;;12.23;;
75038;SDS011;63609;49.992;14.512;2022-10-14T01:30:30;23.30;;;11.93;;
75038;SDS011;63609;49.992;14.512;2022-10-14T01:38:37;23.98;;;12.35;;
75038;SDS011;63609;49.992;14.512;2022-10-14T01:43:53;25.27;;;10.40;;
75038;SDS011;63609;49.992;14.512;2022-10-14T01:46:24;26.23;;;12.57;;
75038;SDS011;63609;49.992;14.512;2022-10-14T01:48:59;23.05;;;12.60;;
75038;SDS011;63609;49.992;14.512;2022-10-14T01:51:34;23.77;;;11.90;;
75038;SDS011;63609;49.992;14.512;2022-10-14T01:54:09;25.17;;;11.73;;
75038;SDS011;63609;49.992;14.512;2022-10-14T01:56:41;29.10;;;12.82;;
75038;SDS011;63609;49.992;14.512;2022-10-14T02:01:42;23.92;;;12.10;;
75038;SDS011;63609;49.992;14.512;2022-10-14T02:04:15;26.30;;;12.88;;
75038;SDS011;63609;49.992;14.512;2022-10-14T02:06:50;24.70;;;11.02;;
75038;SDS011;63609;49.992;14.512;2022-10-14T02:15:20;26.73;;;13.23;;
75038;SDS011;63609;49.992;14.512;2022-10-14T02:17:55;24.67;;;12.20;;
75038;SDS011;63609;49.992;14.512;2022-10-14T02:20:28;26.33;;;13.02;;
75038;SDS011;63609;49.992;14.512;2022-10-14T02:23:03;26.35;;;12.48;;
75038;SDS011;63609;49.992;14.512;2022-10-14T02:25:37;26.63;;;11.35;;
75038;SDS011;63609;49.992;14.512;2022-10-14T02:28:07;25.48;;;11.95;;
75038;SDS011;63609;49.992;14.512;2022-10-14T02:30:38;21.50;;;12.75;;
75038;SDS011;63609;49.992;14.512;2022-10-14T02:33:10;26.83;;;13.18;;
75038;SDS011;63609;49.992;14.512;2022-10-14T02:35:38;25.15;;;11.23;;
75038;SDS011;63609;49.992;14.512;2022-10-14T02:38:07;28.45;;;13.23;;
75038;SDS011;63609;49.992;14.512;2022-10-14T02:40:36;26.98;;;13.80;;
75038;SDS011;63609;49.992;14.512;2022-10-14T02:43:06;27.95;;;14.18;;
75038;SDS011;63609;49.992;14.512;2022-10-14T02:45:39;25.70;;;11.73;;
75038;SDS011;63609;49.992;14.512;2022-10-14T02:48:08;28.15;;;14.05;;
75038;SDS011;63609;49.992;14.512;2022-10-14T02:50:36;28.33;;;13.77;;
75038;SDS011;63609;49.992;14.512;2022-10-14T02:53:03;28.13;;;13.73;;
75038;SDS011;63609;49.992;14.512;2022-10-14T02:55:30;32.05;;;14.52;;
75038;SDS011;63609;49.992;14.512;2022-10-14T02:57:57;28.10;;;14.43;;
75038;SDS011;63609;49.992;14.512;2022-10-14T03:00:25;26.08;;;13.38;;
75038;SDS011;63609;49.992;14.512;2022-10-14T03:02:53;23.63;;;12.57;;
75038;SDS011;63609;49.992;14.512;2022-10-14T03:05:20;23.15;;;12.38;;
75038;SDS011;63609;49.992;14.512;2022-10-14T03:07:48;29.63;;;14.20;;
75038;SDS011;63609;49.992;14.512;2022-10-14T03:10:17;29.83;;;14.73;;
75038;SDS011;63609;49.992;14.512;2022-10-14T03:12:45;26.90;;;13.43;;
75038;SDS011;63609;49.992;14.512;2022-10-14T03:15:22;26.20;;;13.73;;
75038;SDS011;63609;49.992;14.512;2022-10-14T03:17:49;29.30;;;15.00;;
75038;SDS011;63609;49.992;14.512;2022-10-14T03:20:20;27.15;;;14.38;;
75038;SDS011;63609;49.992;14.512;2022-10-14T03:22:50;23.33;;;11.60;;
75038;SDS011;63609;49.992;14.512;2022-10-14T03:27:55;25.90;;;12.48;;
75038;SDS011;63609;49.992;14.512;2022-10-14T03:30:34;28.42;;;13.43;;
75038;SDS011;63609;49.992;14.512;2022-10-14T03:33:08;28.25;;;13.15;;
75038;SDS011;63609;49.992;14.512;2022-10-14T03:36:02;25.05;;;11.88;;
75038;SDS011;63609;49.992;14.512;2022-10-14T03:38:40;25.20;;;12.85;;
75038;SDS011;63609;49.992;14.512;2022-10-14T03:41:14;29.35;;;13.07;;
75038;SDS011;63609;49.992;14.512;2022-10-14T03:46:08;22.83;;;11.23;;
75038;SDS011;63609;49.992;14.512;2022-10-14T03:51:01;26.20;;;12.65;;
75038;SDS011;63609;49.992;14.512;2022-10-14T03:53:28;25.13;;;12.43;;
75038;SDS011;63609;49.992;14.512;2022-10-14T03:55:55;25.98;;;11.45;;
75038;SDS011;63609;49.992;14.512;2022-10-14T03:58:23;22.35;;;11.63;;
75038;SDS011;63609;49.992;14.512;2022-10-14T04:00:55;29.80;;;13.02;;
75038;SDS011;63609;49.992;14.512;2022-10-14T04:03:34;31.02;;;15.75;;
75038;SDS011;63609;49.992;14.512;2022-10-14T04:06:00;23.27;;;10.93;;
75038;SDS011;63609;49.992;14.512;2022-10-14T04:08:28;25.85;;;13.18;;
75038;SDS011;63609;49.992;14.512;2022-10-14T04:11:10;29.30;;;13.52;;
75038;SDS011;63609;49.992;14.512;2022-10-14T04:13:38;26.15;;;12.60;;
75038;SDS011;63609;49.992;14.512;2022-10-14T04:16:06;25.20;;;10.73;;
75038;SDS011;63609;49.992;14.512;2022-10-14T04:18:42;26.45;;;12.13;;
75038;SDS011;63609;49.992;14.512;2022-10-14T04:21:11;24.38;;;12.63;;
75038;SDS011;63609;49.992;14.512;2022-10-14T04:23:43;30.30;;;14.02;;
75038;SDS011;63609;49.992;14.512;2022-10-14T04:26:14;29.00;;;14.18;;
75038;SDS011;63609;49.992;14.512;2022-10-14T04:28:43;27.73;;;12.18;;
75038;SDS011;63609;49.992;14.512;2022-10-14T04:31:27;27.55;;;12.57;;
75038;SDS011;63609;49.992;14.512;2022-10-14T04:33:59;28.20;;;13.13;;
75038;SDS011;63609;49.992;14.512;2022-10-14T04:39:00;25.25;;;11.85;;
75038;SDS011;63609;49.992;14.512;2022-10-14T04:41:27;23.90;;;11.65;;
75038;SDS011;63609;49.992;14.512;2022-10-14T04:43:56;27.52;;;12.75;;
75038;SDS011;63609;49.992;14.512;2022-10-14T04:46:35;29.33;;;13.15;;
75038;SDS011;63609;49.992;14.512;2022-10-14T04:49:03;32.63;;;14.55;;
75038;SDS011;63609;49.992;14.512;2022-10-14T04:51:36;21.05;;;9.88;;
75038;SDS011;63609;49.992;14.512;2022-10-14T04:54:17;26.75;;;12.02;;
75038;SDS011;63609;49.992;14.512;2022-10-14T04:56:51;30.35;;;12.32;;
75038;SDS011;63609;49.992;14.512;2022-10-14T04:59:18;28.60;;;11.48;;
75038;SDS011;63609;49.992;14.512;2022-10-14T05:02:11;26.55;;;12.85;;
75038;SDS011;63609;49.992;14.512;2022-10-14T05:04:44;30.55;;;13.52;;
75038;SDS011;63609;49.992;14.512;2022-10-14T05:07:13;29.55;;;11.98;;
75038;SDS011;63609;49.992;14.512;2022-10-14T05:09:40;22.17;;;11.18;;
75038;SDS011;63609;49.992;14.512;2022-10-14T05:14:57;32.72;;;13.73;;
75038;SDS011;63609;49.992;14.512;2022-10-14T05:17:34;29.17;;;12.98;;
75038;SDS011;63609;49.992;14.512;2022-10-14T05:20:04;31.60;;;14.00;;
75038;SDS011;63609;49.992;14.512;2022-10-14T05:22:33;30.35;;;15.00;;
75038;SDS011;63609;49.992;14.512;2022-10-14T05:25:01;32.47;;;14.80;;
75038;SDS011;63609;49.992;14.512;2022-10-14T05:27:29;28.73;;;14.05;;
75038;SDS011;63609;49.992;14.512;2022-10-14T05:29:59;30.25;;;14.38;;
75038;SDS011;63609;49.992;14.512;2022-10-14T05:32:27;33.47;;;14.50;;
75038;SDS011;63609;49.992;14.512;2022-10-14T05:35:00;31.65;;;15.52;;
75038;SDS011;63609;49.992;14.512;2022-10-14T05:37:33;29.05;;;13.70;;
75038;SDS011;63609;49.992;14.512;2022-10-14T05:40:00;30.85;;;14.32;;
75038;SDS011;63609;49.992;14.512;2022-10-14T05:42:28;26.85;;;13.52;;
75038;SDS011;63609;49.992;14.512;2022-10-14T05:44:57;32.60;;;12.88;;
75038;SDS011;63609;49.992;14.512;2022-10-14T05:47:24;25.08;;;12.80;;
75038;SDS011;63609;49.992;14.512;2022-10-14T05:49:56;26.02;;;11.70;;
75038;SDS011;63609;49.992;14.512;2022-10-14T05:52:23;29.77;;;12.93;;
75038;SDS011;63609;49.992;14.512;2022-10-14T05:54:51;31.42;;;13.93;;
75038;SDS011;63609;49.992;14.512;2022-10-14T05:57:22;30.35;;;13.02;;
75038;SDS011;63609;49.992;14.512;2022-10-14T05:59:49;29.73;;;14.15;;
75038;SDS011;63609;49.992;14.512;2022-10-14T06:02:15;30.90;;;15.25;;
75038;SDS011;63609;49.992;14.512;2022-10-14T06:07:09;24.80;;;11.48;;
75038;SDS011;63609;49.992;14.512;2022-10-14T06:09:37;26.02;;;12.82;;
75038;SDS011;63609;49.992;14.512;2022-10-14T06:12:04;28.70;;;14.00;;
75038;SDS011;63609;49.992;14.512;2022-10-14T06:14:31;34.78;;;15.32;;
75038;SDS011;63609;49.992;14.512;2022-10-14T06:16:59;24.85;;;12.55;;
75038;SDS011;63609;49.992;14.512;2022-10-14T06:19:25;22.65;;;11.07;;
75038;SDS011;63609;49.992;14.512;2022-10-14T06:24:19;26.75;;;13.00;;
75038;SDS011;63609;49.992;14.512;2022-10-14T06:26:45;31.45;;;13.73;;
75038;SDS011;63609;49.992;14.512;2022-10-14T06:29:14;31.77;;;15.38;;
75038;SDS011;63609;49.992;14.512;2022-10-14T06:31:41;19.52;;;10.60;;
75038;SDS011;63609;49.992;14.512;2022-10-14T06:34:08;19.92;;;11.00;;
75038;SDS011;63609;49.992;14.512;2022-10-14T06:36:35;23.75;;;11.85;;
75038;SDS011;63609;49.992;14.512;2022-10-14T06:39:02;30.27;;;11.15;;
75038;SDS011;63609;49.992;14.512;2022-10-14T06:41:30;26.95;;;11.82;;
75038;SDS011;63609;49.992;14.512;2022-10-14T06:43:58;23.13;;;12.50;;
75038;SDS011;63609;49.992;14.512;2022-10-14T06:46:24;24.98;;;12.45;;
75038;SDS011;63609;49.992;14.512;2022-10-14T06:48:51;28.42;;;12.60;;
75038;SDS011;63609;49.992;14.512;2022-10-14T06:53:44;25.00;;;11.05;;
75038;SDS011;63609;49.992;14.512;2022-10-14T06:58:37;28.10;;;13.55;;
75038;SDS011;63609;49.992;14.512;2022-10-14T07:01:05;23.73;;;10.48;;
75038;SDS011;63609;49.992;14.512;2022-10-14T07:03:33;21.98;;;11.93;;
75038;SDS011;63609;49.992;14.512;2022-10-14T07:06:05;23.80;;;11.48;;
75038;SDS011;63609;49.992;14.512;2022-10-14T07:08:33;25.77;;;13.43;;
75038;SDS011;63609;49.992;14.512;2022-10-14T07:11:00;28.38;;;12.88;;
75038;SDS011;63609;49.992;14.512;2022-10-14T07:13:26;23.88;;;11.18;;
75038;SDS011;63609;49.992;14.512;2022-10-14T07:15:53;23.25;;;12.07;;
75038;SDS011;63609;49.992;14.512;2022-10-14T07:18:20;24.85;;;11.77;;
75038;SDS011;63609;49.992;14.512;2022-10-14T07:20:46;22.30;;;9.13;;
75038;SDS011;63609;49.992;14.512;2022-10-14T07:23:13;19.10;;;10.13;;
75038;SDS011;63609;49.992;14.512;2022-10-14T07:25:40;22.80;;;11.00;;
75038;SDS011;63609;49.992;14.512;2022-10-14T07:28:07;27.05;;;10.98;;
75038;SDS011;63609;49.992;14.512;2022-10-14T07:30:33;26.50;;;12.18;;
75038;SDS011;63609;49.992;14.512;2022-10-14T07:33:00;27.10;;;10.52;;
75038;SDS011;63609;49.992;14.512;2022-10-14T07:35:27;22.95;;;10.00;;
75038;SDS011;63609;49.992;14.512;2022-10-14T07:37:54;25.23;;;12.35;;
75038;SDS011;63609;49.992;14.512;2022-10-14T07:40:23;24.73;;;12.13;;
75038;SDS011;63609;49.992;14.512;2022-10-14T07:42:49;26.08;;;12.00;;
75038;SDS011;63609;49.992;14.512;2022-10-14T07:45:16;21.30;;;11.07;;
75038;SDS011;63609;49.992;14.512;2022-10-14T07:47:47;24.63;;;12.60;;
75038;SDS011;63609;49.992;14.512;2022-10-14T07:50:16;24.55;;;13.30;;
75038;SDS011;63609;49.992;14.512;2022-10-14T07:52:43;22.58;;;11.05;;
75038;SDS011;63609;49.992;14.512;2022-10-14T07:55:10;21.40;;;10.73;;
75038;SDS011;63609;49.992;14.512;2022-10-14T07:57:36;19.15;;;11.57;;
75038;SDS011;63609;49.992;14.512;2022-10-14T08:02:37;19.90;;;9.73;;
75038;SDS011;63609;49.992;14.512;2022-10-14T08:05:04;16.42;;;6.82;;
75038;SDS011;63609;49.992;14.512;2022-10-14T08:07:51;19.52;;;9.57;;
75038;SDS011;63609;49.992;14.512;2022-10-14T08:10:17;16.88;;;9.05;;
75038;SDS011;63609;49.992;14.512;2022-10-14T08:12:44;19.20;;;10.15;;
75038;SDS011;63609;49.992;14.512;2022-10-14T08:15:11;17.75;;;9.02;;
75038;SDS011;63609;49.992;14.512;2022-10-14T08:17:38;19.25;;;10.13;;
75038;SDS011;63609;49.992;14.512;2022-10-14T08:20:05;22.88;;;11.40;;
75038;SDS011;63609;49.992;14.512;2022-10-14T08:22:32;25.13;;;11.90;;
75038;SDS011;63609;49.992;14.512;2022-10-14T08:24:58;19.48;;;9.88;;
75038;SDS011;63609;49.992;14.512;2022-10-14T08:27:25;18.83;;;9.90;;
75038;SDS011;63609;49.992;14.512;2022-10-14T08:29:52;18.83;;;9.65;;
75038;SDS011;63609;49.992;14.512;2022-10-14T08:32:19;19.38;;;9.77;;
75038;SDS011;63609;49.992;14.512;2022-10-14T08:34:47;16.98;;;8.25;;
75038;SDS011;63609;49.992;14.512;2022-10-14T08:37:14;20.50;;;9.63;;
75038;SDS011;63609;49.992;14.512;2022-10-14T08:39:41;19.85;;;9.63;;
75038;SDS011;63609;49.992;14.512;2022-10-14T08:44:52;13.55;;;7.05;;
75038;SDS011;63609;49.992;14.512;2022-10-14T08:47:24;19.60;;;8.50;;
75038;SDS011;63609;49.992;14.512;2022-10-14T08:52:33;16.08;;;8.48;;
75038;SDS011;63609;49.992;14.512;2022-10-14T08:57:48;17.88;;;9.63;;
75038;SDS011;63609;49.992;14.512;2022-10-14T09:00:19;20.42;;;10.57;;
75038;SDS011;63609;49.992;14.512;2022-10-14T09:02:48;16.00;;;8.30;;
75038;SDS011;63609;49.992;14.512;2022-10-14T09:05:17;21.45;;;10.43;;
75038;SDS011;63609;49.992;14.512;2022-10-14T09:07:51;22.10;;;10.48;;
75038;SDS011;63609;49.992;14.512;2022-10-14T09:10:31;20.77;;;11.05;;
75038;SDS011;63609;49.992;14.512;2022-10-14T09:13:13;19.98;;;10.70;;
75038;SDS011;63609;49.992;14.512;2022-10-14T09:15:51;18.27;;;10.15;;
75038;SDS011;63609;49.992;14.512;2022-10-14T09:18:37;23.75;;;10.43;;
75038;SDS011;63609;49.992;14.512;2022-10-14T09:24:24;20.90;;;9.27;;
75038;SDS011;63609;49.992;14.512;2022-10-14T09:32:24;21.42;;;10.77;;
75038;SDS011;63609;49.992;14.512;2022-10-14T09:34:52;17.95;;;9.75;;
75038;SDS011;63609;49.992;14.512;2022-10-14T09:37:22;18.55;;;10.82;;
75038;SDS011;63609;49.992;14.512;2022-10-14T09:39:52;20.45;;;10.75;;
75038;SDS011;63609;49.992;14.512;2022-10-14T09:42:43;22.95;;;10.82;;
75038;SDS011;63609;49.992;14.512;2022-10-14T09:45:16;19.17;;;10.40;;
75038;SDS011;63609;49.992;14.512;2022-10-14T09:47:55;22.08;;;11.18;;
75038;SDS011;63609;49.992;14.512;2022-10-14T09:51:09;21.10;;;10.98;;
75038;SDS011;63609;49.992;14.512;2022-10-14T09:53:24;23.88;;;9.90;;
75038;SDS011;63609;49.992;14.512;2022-10-14T09:56:13;23.40;;;11.93;;
75038;SDS011;63609;49.992;14.512;2022-10-14T09:58:47;21.08;;;12.32;;
75038;SDS011;63609;49.992;14.512;2022-10-14T10:01:21;23.15;;;12.07;;
75038;SDS011;63609;49.992;14.512;2022-10-14T10:03:51;21.00;;;11.82;;
75038;SDS011;63609;49.992;14.512;2022-10-14T10:06:21;26.02;;;12.77;;
75038;SDS011;63609;49.992;14.512;2022-10-14T10:11:33;25.98;;;12.40;;
75038;SDS011;63609;49.992;14.512;2022-10-14T10:16:47;22.13;;;12.77;;
75038;SDS011;63609;49.992;14.512;2022-10-14T10:19:31;25.70;;;13.30;;
75038;SDS011;63609;49.992;14.512;2022-10-14T10:24:50;22.48;;;10.35;;
75038;SDS011;63609;49.992;14.512;2022-10-14T10:27:19;24.08;;;12.25;;
75038;SDS011;63609;49.992;14.512;2022-10-14T10:29:46;20.15;;;12.02;;
75038;SDS011;63609;49.992;14.512;2022-10-14T10:32:16;22.48;;;12.65;;
75038;SDS011;63609;49.992;14.512;2022-10-14T10:37:30;24.63;;;12.15;;
75038;SDS011;63609;49.992;14.512;2022-10-14T10:40:16;21.75;;;11.95;;
75038;SDS011;63609;49.992;14.512;2022-10-14T10:45:28;16.80;;;9.05;;
75038;SDS011;63609;49.992;14.512;2022-10-14T10:48:08;19.88;;;9.60;;
75038;SDS011;63609;49.992;14.512;2022-10-14T10:50:47;16.55;;;9.23;;
75038;SDS011;63609;49.992;14.512;2022-10-14T10:53:25;18.80;;;10.43;;
75038;SDS011;63609;49.992;14.512;2022-10-14T11:04:28;21.83;;;10.85;;
75038;SDS011;63609;49.992;14.512;2022-10-14T11:07:21;20.23;;;10.05;;
75038;SDS011;63609;49.992;14.512;2022-10-14T11:10:29;19.67;;;9.82;;
75038;SDS011;63609;49.992;14.512;2022-10-14T11:16:51;20.77;;;10.40;;
75038;SDS011;63609;49.992;14.512;2022-10-14T11:19:38;19.08;;;9.63;;
75038;SDS011;63609;49.992;14.512;2022-10-14T11:22:32;18.98;;;9.85;;
75038;SDS011;63609;49.992;14.512;2022-10-14T11:25:15;18.02;;;10.20;;
75038;SDS011;63609;49.992;14.512;2022-10-14T11:44:34;18.92;;;9.90;;
75038;SDS011;63609;49.992;14.512;2022-10-14T11:47:16;19.42;;;10.20;;
75038;SDS011;63609;49.992;14.512;2022-10-14T11:49:52;17.67;;;10.45;;
75038;SDS011;63609;49.992;14.512;2022-10-14T11:52:44;16.73;;;9.55;;
75038;SDS011;63609;49.992;14.512;2022-10-14T11:55:19;15.95;;;9.23;;
75038;SDS011;63609;49.992;14.512;2022-10-14T11:57:54;14.38;;;8.43;;
75038;SDS011;63609;49.992;14.512;2022-10-14T12:00:25;14.48;;;8.40;;
75038;SDS011;63609;49.992;14.512;2022-10-14T12:08:47;16.92;;;8.82;;
75038;SDS011;63609;49.992;14.512;2022-10-14T12:11:26;17.92;;;8.65;;
75038;SDS011;63609;49.992;14.512;2022-10-14T12:14:03;18.00;;;9.23;;
75038;SDS011;63609;49.992;14.512;2022-10-14T12:16:38;16.23;;;9.30;;
75038;SDS011;63609;49.992;14.512;2022-10-14T12:19:10;15.20;;;8.82;;
75038;SDS011;63609;49.992;14.512;2022-10-14T12:21:49;13.90;;;7.75;;
75038;SDS011;63609;49.992;14.512;2022-10-14T12:24:20;14.48;;;7.63;;
75038;SDS011;63609;49.992;14.512;2022-10-14T12:29:24;11.07;;;6.07;;
75038;SDS011;63609;49.992;14.512;2022-10-14T12:32:38;12.57;;;6.90;;
75038;SDS011;63609;49.992;14.512;2022-10-14T12:34:48;13.85;;;7.05;;
75038;SDS011;63609;49.992;14.512;2022-10-14T12:42:34;13.48;;;7.22;;
75038;SDS011;63609;49.992;14.512;2022-10-14T12:45:19;10.20;;;6.68;;
75038;SDS011;63609;49.992;14.512;2022-10-14T12:47:59;10.88;;;6.70;;
75038;SDS011;63609;49.992;14.512;2022-10-14T12:50:39;11.10;;;6.35;;
75038;SDS011;63609;49.992;14.512;2022-10-14T12:55:48;13.40;;;7.45;;
75038;SDS011;63609;49.992;14.512;2022-10-14T12:58:21;11.50;;;7.47;;
75038;SDS011;63609;49.992;14.512;2022-10-14T13:00:55;13.63;;;6.57;;
75038;SDS011;63609;49.992;14.512;2022-10-14T13:03:25;10.52;;;5.95;;
75038;SDS011;63609;49.992;14.512;2022-10-14T13:06:25;11.30;;;7.07;;
75038;SDS011;63609;49.992;14.512;2022-10-14T13:12:09;14.38;;;6.05;;
75038;SDS011;63609;49.992;14.512;2022-10-14T13:17:27;12.82;;;6.30;;
75038;SDS011;63609;49.992;14.512;2022-10-14T13:26:12;12.10;;;6.15;;
75038;SDS011;63609;49.992;14.512;2022-10-14T13:28:57;10.38;;;6.65;;
75038;SDS011;63609;49.992;14.512;2022-10-14T13:35:02;8.55;;;5.38;;
75038;SDS011;63609;49.992;14.512;2022-10-14T13:37:35;11.60;;;5.90;;
75038;SDS011;63609;49.992;14.512;2022-10-14T13:40:25;11.70;;;5.45;;
75038;SDS011;63609;49.992;14.512;2022-10-14T13:42:58;12.73;;;6.15;;
75038;SDS011;63609;49.992;14.512;2022-10-14T13:45:42;12.20;;;5.47;;
75038;SDS011;63609;49.992;14.512;2022-10-14T13:48:14;10.15;;;5.32;;
75038;SDS011;63609;49.992;14.512;2022-10-14T13:50:43;7.97;;;5.35;;
75038;SDS011;63609;49.992;14.512;2022-10-14T13:53:17;9.82;;;6.05;;
75038;SDS011;63609;49.992;14.512;2022-10-14T13:55:49;9.20;;;5.18;;
75038;SDS011;63609;49.992;14.512;2022-10-14T13:58:21;10.10;;;4.68;;
75038;SDS011;63609;49.992;14.512;2022-10-14T14:06:13;7.38;;;4.10;;
75038;SDS011;63609;49.992;14.512;2022-10-14T14:08:46;8.48;;;3.97;;
75038;SDS011;63609;49.992;14.512;2022-10-14T14:11:26;5.65;;;3.90;;
75038;SDS011;63609;49.992;14.512;2022-10-14T14:13:58;6.90;;;4.10;;
75038;SDS011;63609;49.992;14.512;2022-10-14T14:19:46;9.13;;;5.13;;
75038;SDS011;63609;49.992;14.512;2022-10-14T14:22:24;8.45;;;4.80;;
75038;SDS011;63609;49.992;14.512;2022-10-14T14:28:00;7.47;;;3.70;;
75038;SDS011;63609;49.992;14.512;2022-10-14T14:30:34;9.18;;;4.28;;
75038;SDS011;63609;49.992;14.512;2022-10-14T14:33:05;6.90;;;3.58;;
75038;SDS011;63609;49.992;14.512;2022-10-14T14:35:36;7.10;;;4.63;;
75038;SDS011;63609;49.992;14.512;2022-10-14T14:38:03;6.13;;;3.65;;
75038;SDS011;63609;49.992;14.512;2022-10-14T14:40:30;6.03;;;4.20;;
75038;SDS011;63609;49.992;14.512;2022-10-14T14:42:57;6.93;;;3.90;;
75038;SDS011;63609;49.992;14.512;2022-10-14T14:45:31;7.43;;;3.80;;
75038;SDS011;63609;49.992;14.512;2022-10-14T14:48:09;7.28;;;4.30;;
75038;SDS011;63609;49.992;14.512;2022-10-14T14:50:39;6.30;;;4.18;;
75038;SDS011;63609;49.992;14.512;2022-10-14T14:53:09;7.03;;;4.20;;
75038;SDS011;63609;49.992;14.512;2022-10-14T14:55:45;8.40;;;4.28;;
75038;SDS011;63609;49.992;14.512;2022-10-14T15:00:57;10.15;;;5.22;;
75038;SDS011;63609;49.992;14.512;2022-10-14T15:03:25;8.25;;;4.45;;
75038;SDS011;63609;49.992;14.512;2022-10-14T15:05:59;9.77;;;4.63;;
75038;SDS011;63609;49.992;14.512;2022-10-14T15:10:57;7.97;;;4.35;;
75038;SDS011;63609;49.992;14.512;2022-10-14T15:15:52;8.57;;;4.25;;
75038;SDS011;63609;49.992;14.512;2022-10-14T15:18:24;9.15;;;4.85;;
75038;SDS011;63609;49.992;14.512;2022-10-14T15:21:03;8.73;;;4.50;;
75038;SDS011;63609;49.992;14.512;2022-10-14T15:29:02;9.82;;;4.30;;
75038;SDS011;63609;49.992;14.512;2022-10-14T15:31:32;8.98;;;4.75;;
75038;SDS011;63609;49.992;14.512;2022-10-14T15:34:00;7.72;;;4.20;;
75038;SDS011;63609;49.992;14.512;2022-10-14T15:36:28;6.72;;;4.35;;
75038;SDS011;63609;49.992;14.512;2022-10-14T15:38:58;7.88;;;4.53;;
75038;SDS011;63609;49.992;14.512;2022-10-14T15:41:28;7.20;;;4.22;;
75038;SDS011;63609;49.992;14.512;2022-10-14T15:43:55;11.00;;;4.65;;
75038;SDS011;63609;49.992;14.512;2022-10-14T15:46:21;9.05;;;4.90;;
75038;SDS011;63609;49.992;14.512;2022-10-14T15:49:14;8.70;;;5.55;;
75038;SDS011;63609;49.992;14.512;2022-10-14T15:51:45;9.15;;;4.95;;
75038;SDS011;63609;49.992;14.512;2022-10-14T15:54:14;8.35;;;5.28;;
75038;SDS011;63609;49.992;14.512;2022-10-14T15:56:41;8.57;;;4.65;;
75038;SDS011;63609;49.992;14.512;2022-10-14T15:59:08;7.93;;;4.53;;
75038;SDS011;63609;49.992;14.512;2022-10-14T16:01:36;10.43;;;5.05;;
75038;SDS011;63609;49.992;14.512;2022-10-14T16:04:03;10.77;;;5.80;;
75038;SDS011;63609;49.992;14.512;2022-10-14T16:06:35;7.75;;;5.03;;
75038;SDS011;63609;49.992;14.512;2022-10-14T16:09:02;8.73;;;5.20;;
75038;SDS011;63609;49.992;14.512;2022-10-14T16:11:29;11.35;;;6.55;;
75038;SDS011;63609;49.992;14.512;2022-10-14T16:13:56;11.70;;;6.78;;
75038;SDS011;63609;49.992;14.512;2022-10-14T16:16:24;13.45;;;6.68;;
75038;SDS011;63609;49.992;14.512;2022-10-14T16:18:56;10.38;;;6.68;;
75038;SDS011;63609;49.992;14.512;2022-10-14T16:21:23;13.30;;;6.90;;
75038;SDS011;63609;49.992;14.512;2022-10-14T16:23:50;13.57;;;7.18;;
75038;SDS011;63609;49.992;14.512;2022-10-14T16:26:18;10.02;;;6.03;;
75038;SDS011;63609;49.992;14.512;2022-10-14T16:28:46;12.18;;;6.65;;
75038;SDS011;63609;49.992;14.512;2022-10-14T16:31:15;10.85;;;6.72;;
75038;SDS011;63609;49.992;14.512;2022-10-14T16:33:42;11.15;;;6.53;;
75038;SDS011;63609;49.992;14.512;2022-10-14T16:36:12;9.45;;;6.32;;
75038;SDS011;63609;49.992;14.512;2022-10-14T16:38:40;11.75;;;6.45;;
75038;SDS011;63609;49.992;14.512;2022-10-14T16:41:08;13.13;;;6.43;;
75038;SDS011;63609;49.992;14.512;2022-10-14T16:43:36;12.10;;;6.75;;
75038;SDS011;63609;49.992;14.512;2022-10-14T16:46:03;12.80;;;6.63;;
75038;SDS011;63609;49.992;14.512;2022-10-14T16:48:31;13.82;;;7.32;;
75038;SDS011;63609;49.992;14.512;2022-10-14T16:50:59;12.93;;;7.40;;
75038;SDS011;63609;49.992;14.512;2022-10-14T16:53:29;13.70;;;7.13;;
75038;SDS011;63609;49.992;14.512;2022-10-14T16:56:15;14.00;;;6.78;;
75038;SDS011;63609;49.992;14.512;2022-10-14T16:59:16;13.27;;;6.80;;
75038;SDS011;63609;49.992;14.512;2022-10-14T17:01:43;12.38;;;6.40;;
75038;SDS011;63609;49.992;14.512;2022-10-14T17:04:14;14.68;;;6.43;;
75038;SDS011;63609;49.992;14.512;2022-10-14T17:06:43;13.50;;;6.63;;
75038;SDS011;63609;49.992;14.512;2022-10-14T17:09:13;13.85;;;7.57;;
75038;SDS011;63609;49.992;14.512;2022-10-14T17:11:41;9.55;;;5.50;;
75038;SDS011;63609;49.992;14.512;2022-10-14T17:14:14;14.02;;;6.68;;
75038;SDS011;63609;49.992;14.512;2022-10-14T17:16:44;10.60;;;6.28;;
75038;SDS011;63609;49.992;14.512;2022-10-14T17:19:13;11.23;;;6.30;;
75038;SDS011;63609;49.992;14.512;2022-10-14T17:21:40;11.57;;;7.07;;
75038;SDS011;63609;49.992;14.512;2022-10-14T17:24:08;11.30;;;6.65;;
75038;SDS011;63609;49.992;14.512;2022-10-14T17:26:35;11.98;;;6.50;;
75038;SDS011;63609;49.992;14.512;2022-10-14T17:29:02;12.60;;;7.32;;
75038;SDS011;63609;49.992;14.512;2022-10-14T17:31:33;12.82;;;7.82;;
75038;SDS011;63609;49.992;14.512;2022-10-14T17:35:36;13.73;;;8.00;;
75038;SDS011;63609;49.992;14.512;2022-10-14T17:39:56;16.02;;;9.73;;
75038;SDS011;63609;49.992;14.512;2022-10-14T17:47:53;13.20;;;7.78;;
75038;SDS011;63609;49.992;14.512;2022-10-14T17:54:10;12.63;;;8.13;;
75038;SDS011;63609;49.992;14.512;2022-10-14T17:56:37;18.92;;;9.65;;